Terminal Aerodrome Forecast
Issued by NWS

Home | Current Version | Previous Version | Text Only | Print | Product List | Glossary On
Versions: 1 2 3 4 5 6 7 8 9 10 11 12
000
FTUS46 KEKA 291100
TAFUKI
TAF
KUKI 291131Z 2912/3012 VRB03KT P6SM FEW250
     FM291400 00000KT P6SM SCT150 BKN200
     FM292000 15006KT P6SM VCSH SCT060 SCT150 BKN180
     FM300000 24006KT P6SM SCT150 BKN180
     FM300300 VRB03KT P6SM SCT150=

USA.gov is the U.S. government's official web portal to all federal, state and local government web resources and services.